sensor_id;sensor_type;location;lat;lon;timestamp;pressure;altitude;pressure_sealevel;temperature;humidity
22255;BME280;11296;42.684;23.322;2023-01-10T00:01:26;69030.91;;;-141.65;100.00
22255;BME280;11296;42.684;23.322;2023-01-10T00:03:52;69030.91;;;-141.65;100.00
22255;BME280;11296;42.684;23.322;2023-01-10T00:06:18;69030.91;;;-141.65;100.00
22255;BME280;11296;42.684;23.322;2023-01-10T00:08:43;69030.91;;;-141.65;100.00
22255;BME280;11296;42.684;23.322;2023-01-10T00:11:09;69030.91;;;-141.65;100.00
22255;BME280;11296;42.684;23.322;2023-01-10T00:13:54;69030.91;;;-141.65;100.00
22255;BME280;11296;42.684;23.322;2023-01-10T00:16:21;69030.91;;;-141.65;100.00
22255;BME280;11296;42.684;23.322;2023-01-10T00:18:46;69030.91;;;-141.65;100.00
22255;BME280;11296;42.684;23.322;2023-01-10T00:21:12;69030.91;;;-141.65;100.00
22255;BME280;11296;42.684;23.322;2023-01-10T00:23:39;69030.91;;;-141.65;100.00
22255;BME280;11296;42.684;23.322;2023-01-10T00:26:05;69030.91;;;-141.65;100.00
22255;BME280;11296;42.684;23.322;2023-01-10T00:28:31;69030.91;;;-141.65;100.00
22255;BME280;11296;42.684;23.322;2023-01-10T00:31:00;69030.91;;;-141.65;100.00
22255;BME280;11296;42.684;23.322;2023-01-10T00:33:31;69030.91;;;-141.65;100.00
22255;BME280;11296;42.684;23.322;2023-01-10T00:36:00;69030.91;;;-141.65;100.00
22255;BME280;11296;42.684;23.322;2023-01-10T00:38:26;69030.91;;;-141.65;100.00
22255;BME280;11296;42.684;23.322;2023-01-10T00:40:52;69030.91;;;-141.65;100.00
22255;BME280;11296;42.684;23.322;2023-01-10T00:43:18;69030.91;;;-141.65;100.00
22255;BME280;11296;42.684;23.322;2023-01-10T00:46:02;69030.91;;;-141.65;100.00
22255;BME280;11296;42.684;23.322;2023-01-10T00:48:28;69030.91;;;-141.65;100.00
22255;BME280;11296;42.684;23.322;2023-01-10T00:50:53;69030.91;;;-141.65;100.00
22255;BME280;11296;42.684;23.322;2023-01-10T00:53:19;69030.91;;;-141.65;100.00
22255;BME280;11296;42.684;23.322;2023-01-10T00:55:45;69030.91;;;-141.65;100.00
22255;BME280;11296;42.684;23.322;2023-01-10T00:58:12;69030.91;;;-141.65;100.00
22255;BME280;11296;42.684;23.322;2023-01-10T01:00:38;69030.91;;;-141.65;100.00
22255;BME280;11296;42.684;23.322;2023-01-10T01:03:12;94423.22;;;3.61;100.00
22255;BME280;11296;42.684;23.322;2023-01-10T01:05:42;94421.00;;;3.29;100.00
22255;BME280;11296;42.684;23.322;2023-01-10T01:08:09;94383.78;;;3.29;100.00
22255;BME280;11296;42.684;23.322;2023-01-10T01:10:35;94433.44;;;3.63;100.00
22255;BME280;11296;42.684;23.322;2023-01-10T01:13:12;94413.13;;;3.47;100.00
22255;BME280;11296;42.684;23.322;2023-01-10T01:15:38;94431.53;;;3.63;100.00
22255;BME280;11296;42.684;23.322;2023-01-10T01:18:05;94421.19;;;3.65;100.00
22255;BME280;11296;42.684;23.322;2023-01-10T01:20:31;94395.28;;;3.57;100.00
22255;BME280;11296;42.684;23.322;2023-01-10T01:22:57;94415.75;;;3.78;100.00
22255;BME280;11296;42.684;23.322;2023-01-10T01:25:23;94420.34;;;3.78;100.00
22255;BME280;11296;42.684;23.322;2023-01-10T01:27:49;94431.53;;;3.72;100.00
22255;BME280;11296;42.684;23.322;2023-01-10T01:30:15;94461.44;;;3.86;100.00
22255;BME280;11296;42.684;23.322;2023-01-10T01:32:40;94401.34;;;3.57;100.00
22255;BME280;11296;42.684;23.322;2023-01-10T01:35:09;94420.19;;;3.41;100.00
22255;BME280;11296;42.684;23.322;2023-01-10T01:37:36;94444.56;;;3.80;100.00
22255;BME280;11296;42.684;23.322;2023-01-10T01:40:02;94411.91;;;3.70;100.00
22255;BME280;11296;42.684;23.322;2023-01-10T01:42:33;94376.88;;;3.71;100.00
22255;BME280;11296;42.684;23.322;2023-01-10T01:48:42;94415.88;;;3.65;100.00
22255;BME280;11296;42.684;23.322;2023-01-10T01:50:56;94425.91;;;3.70;100.00
22255;BME280;11296;42.684;23.322;2023-01-10T01:53:41;94417.72;;;3.87;100.00
22255;BME280;11296;42.684;23.322;2023-01-10T01:56:16;94415.16;;;3.74;100.00
22255;BME280;11296;42.684;23.322;2023-01-10T01:58:55;94417.22;;;3.79;100.00
22255;BME280;11296;42.684;23.322;2023-01-10T02:01:22;94381.88;;;3.60;100.00
22255;BME280;11296;42.684;23.322;2023-01-10T02:03:52;94362.38;;;3.63;100.00
22255;BME280;11296;42.684;23.322;2023-01-10T02:06:22;94357.53;;;3.71;100.00
22255;BME280;11296;42.684;23.322;2023-01-10T02:08:55;94351.78;;;3.82;100.00
22255;BME280;11296;42.684;23.322;2023-01-10T02:11:23;94378.66;;;3.74;100.00
22255;BME280;11296;42.684;23.322;2023-01-10T02:13:49;94358.19;;;3.53;100.00
22255;BME280;11296;42.684;23.322;2023-01-10T02:16:15;94385.56;;;3.63;100.00
22255;BME280;11296;42.684;23.322;2023-01-10T02:18:42;94394.59;;;3.74;100.00
22255;BME280;11296;42.684;23.322;2023-01-10T02:21:23;94323.34;;;3.51;100.00
22255;BME280;11296;42.684;23.322;2023-01-10T02:24:18;94387.13;;;3.91;100.00
22255;BME280;11296;42.684;23.322;2023-01-10T02:26:58;94372.50;;;3.87;100.00
22255;BME280;11296;42.684;23.322;2023-01-10T02:35:07;94335.47;;;3.61;100.00
22255;BME280;11296;42.684;23.322;2023-01-10T02:37:50;94368.63;;;3.79;100.00
22255;BME280;11296;42.684;23.322;2023-01-10T02:40:23;94343.19;;;3.68;100.00
22255;BME280;11296;42.684;23.322;2023-01-10T02:43:13;94354.16;;;3.80;100.00
22255;BME280;11296;42.684;23.322;2023-01-10T02:46:08;94371.16;;;3.82;100.00
22255;BME280;11296;42.684;23.322;2023-01-10T02:48:35;94308.44;;;3.54;100.00
22255;BME280;11296;42.684;23.322;2023-01-10T02:53:38;94323.06;;;3.58;100.00
22255;BME280;11296;42.684;23.322;2023-01-10T02:56:20;94366.13;;;3.84;100.00
22255;BME280;11296;42.684;23.322;2023-01-10T03:04:45;94365.09;;;3.82;100.00
22255;BME280;11296;42.684;23.322;2023-01-10T03:15:12;94395.31;;;4.15;100.00
22255;BME280;11296;42.684;23.322;2023-01-10T03:17:41;94380.81;;;4.07;100.00
22255;BME280;11296;42.684;23.322;2023-01-10T03:20:10;94391.47;;;4.16;100.00
22255;BME280;11296;42.684;23.322;2023-01-10T03:22:38;94372.69;;;4.10;100.00
22255;BME280;11296;42.684;23.322;2023-01-10T03:25:06;94365.16;;;4.09;100.00
22255;BME280;11296;42.684;23.322;2023-01-10T03:33:02;94390.00;;;4.24;100.00
22255;BME280;11296;42.684;23.322;2023-01-10T03:38:29;94379.22;;;4.27;100.00
22255;BME280;11296;42.684;23.322;2023-01-10T03:43:47;94369.44;;;4.15;100.00
22255;BME280;11296;42.684;23.322;2023-01-10T03:46:46;94388.84;;;4.43;100.00
22255;BME280;11296;42.684;23.322;2023-01-10T03:49:14;94376.13;;;4.47;100.00
22255;BME280;11296;42.684;23.322;2023-01-10T03:51:41;94376.44;;;4.40;100.00
22255;BME280;11296;42.684;23.322;2023-01-10T03:54:07;94352.16;;;4.29;100.00
22255;BME280;11296;42.684;23.322;2023-01-10T03:56:46;94350.69;;;4.37;100.00
22255;BME280;11296;42.684;23.322;2023-01-10T03:59:16;94325.25;;;4.27;100.00
22255;BME280;11296;42.684;23.322;2023-01-10T04:01:42;94320.97;;;4.29;100.00
22255;BME280;11296;42.684;23.322;2023-01-10T04:04:08;94324.97;;;4.25;100.00
22255;BME280;11296;42.684;23.322;2023-01-10T04:06:33;94306.31;;;4.25;100.00
22255;BME280;11296;42.684;23.322;2023-01-10T04:08:59;94294.34;;;4.02;100.00
22255;BME280;11296;42.684;23.322;2023-01-10T04:11:25;94294.75;;;4.10;100.00
22255;BME280;11296;42.684;23.322;2023-01-10T04:13:50;94292.41;;;4.03;100.00
22255;BME280;11296;42.684;23.322;2023-01-10T04:16:16;94289.47;;;4.01;100.00
22255;BME280;11296;42.684;23.322;2023-01-10T04:18:42;94290.63;;;4.00;100.00
22255;BME280;11296;42.684;23.322;2023-01-10T04:21:07;94273.91;;;3.90;100.00
22255;BME280;11296;42.684;23.322;2023-01-10T04:23:33;94281.91;;;3.81;100.00
22255;BME280;11296;42.684;23.322;2023-01-10T04:25:58;94312.06;;;3.87;100.00
22255;BME280;11296;42.684;23.322;2023-01-10T04:28:24;94332.00;;;3.83;100.00
22255;BME280;11296;42.684;23.322;2023-01-10T04:30:50;94338.66;;;3.87;100.00
22255;BME280;11296;42.684;23.322;2023-01-10T04:33:15;94323.59;;;4.02;100.00
22255;BME280;11296;42.684;23.322;2023-01-10T04:35:46;94348.41;;;3.90;100.00
22255;BME280;11296;42.684;23.322;2023-01-10T04:38:12;94360.09;;;4.02;100.00
22255;BME280;11296;42.684;23.322;2023-01-10T04:40:38;94331.41;;;3.97;100.00
22255;BME280;11296;42.684;23.322;2023-01-10T04:43:03;94367.22;;;4.32;100.00
22255;BME280;11296;42.684;23.322;2023-01-10T04:45:29;94342.25;;;4.20;100.00
22255;BME280;11296;42.684;23.322;2023-01-10T04:47:55;94347.56;;;4.38;100.00
22255;BME280;11296;42.684;23.322;2023-01-10T04:50:21;94356.75;;;4.46;100.00
22255;BME280;11296;42.684;23.322;2023-01-10T04:52:47;94330.25;;;4.43;100.00
22255;BME280;11296;42.684;23.322;2023-01-10T04:55:13;94297.31;;;4.22;100.00
22255;BME280;11296;42.684;23.322;2023-01-10T04:57:38;94320.66;;;4.27;100.00
22255;BME280;11296;42.684;23.322;2023-01-10T05:00:04;94375.97;;;4.50;100.00
22255;BME280;11296;42.684;23.322;2023-01-10T05:02:30;94333.25;;;4.27;100.00
22255;BME280;11296;42.684;23.322;2023-01-10T05:04:56;94311.50;;;4.19;100.00
22255;BME280;11296;42.684;23.322;2023-01-10T05:07:22;94321.56;;;4.33;100.00
22255;BME280;11296;42.684;23.322;2023-01-10T05:09:47;94342.69;;;4.46;100.00
22255;BME280;11296;42.684;23.322;2023-01-10T05:12:13;94319.63;;;4.25;100.00
22255;BME280;11296;42.684;23.322;2023-01-10T05:14:39;94334.13;;;4.42;100.00
22255;BME280;11296;42.684;23.322;2023-01-10T05:17:05;94290.19;;;4.10;100.00
22255;BME280;11296;42.684;23.322;2023-01-10T05:19:30;94309.72;;;4.25;100.00
22255;BME280;11296;42.684;23.322;2023-01-10T05:21:56;94292.41;;;4.39;100.00
22255;BME280;11296;42.684;23.322;2023-01-10T05:24:22;94295.81;;;4.30;100.00
22255;BME280;11296;42.684;23.322;2023-01-10T05:26:48;94277.63;;;4.29;100.00
22255;BME280;11296;42.684;23.322;2023-01-10T05:29:13;94289.91;;;4.26;100.00
22255;BME280;11296;42.684;23.322;2023-01-10T05:31:39;94294.78;;;4.37;100.00
22255;BME280;11296;42.684;23.322;2023-01-10T05:34:05;94308.25;;;4.42;100.00
22255;BME280;11296;42.684;23.322;2023-01-10T05:36:31;94323.19;;;4.58;100.00
22255;BME280;11296;42.684;23.322;2023-01-10T05:38:57;94314.28;;;4.61;100.00
22255;BME280;11296;42.684;23.322;2023-01-10T05:41:23;94312.81;;;4.42;100.00
22255;BME280;11296;42.684;23.322;2023-01-10T05:43:48;94306.91;;;4.29;100.00
22255;BME280;11296;42.684;23.322;2023-01-10T05:46:14;94323.47;;;4.42;100.00
22255;BME280;11296;42.684;23.322;2023-01-10T05:48:40;94300.56;;;4.26;100.00
22255;BME280;11296;42.684;23.322;2023-01-10T05:51:06;94337.97;;;4.50;100.00
22255;BME280;11296;42.684;23.322;2023-01-10T05:53:32;94344.31;;;4.71;100.00
22255;BME280;11296;42.684;23.322;2023-01-10T05:56:00;94307.50;;;4.60;100.00
22255;BME280;11296;42.684;23.322;2023-01-10T05:58:26;94317.69;;;4.71;100.00
22255;BME280;11296;42.684;23.322;2023-01-10T06:00:53;94304.66;;;4.73;100.00
22255;BME280;11296;42.684;23.322;2023-01-10T06:03:20;94341.34;;;4.87;100.00
22255;BME280;11296;42.684;23.322;2023-01-10T06:05:46;94331.28;;;4.73;100.00
22255;BME280;11296;42.684;23.322;2023-01-10T06:08:12;94319.16;;;4.72;100.00
22255;BME280;11296;42.684;23.322;2023-01-10T06:10:37;94346.50;;;4.99;100.00
22255;BME280;11296;42.684;23.322;2023-01-10T06:13:03;94329.19;;;4.86;100.00
22255;BME280;11296;42.684;23.322;2023-01-10T06:15:29;94321.50;;;4.88;100.00
22255;BME280;11296;42.684;23.322;2023-01-10T06:17:55;94348.50;;;5.13;100.00
22255;BME280;11296;42.684;23.322;2023-01-10T06:20:21;94304.47;;;4.85;100.00
22255;BME280;11296;42.684;23.322;2023-01-10T06:22:46;94312.72;;;5.05;100.00
22255;BME280;11296;42.684;23.322;2023-01-10T06:25:12;94313.19;;;4.95;100.00
22255;BME280;11296;42.684;23.322;2023-01-10T06:27:42;94308.47;;;4.90;100.00
22255;BME280;11296;42.684;23.322;2023-01-10T06:30:10;94292.66;;;4.68;100.00
22255;BME280;11296;42.684;23.322;2023-01-10T06:32:36;94310.09;;;4.87;100.00
22255;BME280;11296;42.684;23.322;2023-01-10T06:35:02;94298.28;;;4.79;100.00
22255;BME280;11296;42.684;23.322;2023-01-10T06:37:28;94269.44;;;4.69;100.00
22255;BME280;11296;42.684;23.322;2023-01-10T06:39:54;94288.47;;;4.94;100.00
22255;BME280;11296;42.684;23.322;2023-01-10T06:42:20;94292.63;;;4.86;100.00
22255;BME280;11296;42.684;23.322;2023-01-10T06:44:45;94314.50;;;5.08;100.00
22255;BME280;11296;42.684;23.322;2023-01-10T06:47:11;94296.47;;;4.94;100.00
22255;BME280;11296;42.684;23.322;2023-01-10T06:49:37;94317.72;;;5.12;100.00
22255;BME280;11296;42.684;23.322;2023-01-10T06:52:02;94325.56;;;5.16;100.00
22255;BME280;11296;42.684;23.322;2023-01-10T06:54:28;94340.78;;;5.24;100.00
22255;BME280;11296;42.684;23.322;2023-01-10T06:56:54;94300.63;;;4.95;100.00
22255;BME280;11296;42.684;23.322;2023-01-10T06:59:19;94320.41;;;5.03;100.00
22255;BME280;11296;42.684;23.322;2023-01-10T07:01:45;94304.03;;;4.87;100.00
22255;BME280;11296;42.684;23.322;2023-01-10T07:04:10;94302.84;;;4.88;100.00
22255;BME280;11296;42.684;23.322;2023-01-10T07:06:37;94304.72;;;5.05;100.00
22255;BME280;11296;42.684;23.322;2023-01-10T07:09:03;94304.44;;;5.03;100.00
22255;BME280;11296;42.684;23.322;2023-01-10T07:11:30;94295.88;;;4.99;100.00
22255;BME280;11296;42.684;23.322;2023-01-10T07:13:56;94272.78;;;4.87;100.00
22255;BME280;11296;42.684;23.322;2023-01-10T07:16:22;94295.81;;;5.17;100.00
22255;BME280;11296;42.684;23.322;2023-01-10T07:18:47;94282.09;;;5.01;100.00
22255;BME280;11296;42.684;23.322;2023-01-10T07:21:13;94265.97;;;4.95;100.00
22255;BME280;11296;42.684;23.322;2023-01-10T07:23:41;94278.97;;;5.02;100.00
22255;BME280;11296;42.684;23.322;2023-01-10T07:26:09;94286.94;;;5.11;100.00
22255;BME280;11296;42.684;23.322;2023-01-10T07:28:36;94274.22;;;5.06;100.00
22255;BME280;11296;42.684;23.322;2023-01-10T07:31:03;94272.75;;;4.96;100.00
22255;BME280;11296;42.684;23.322;2023-01-10T07:33:30;94268.63;;;4.95;100.00
22255;BME280;11296;42.684;23.322;2023-01-10T07:35:56;94266.25;;;4.97;100.00
22255;BME280;11296;42.684;23.322;2023-01-10T07:38:22;94289.16;;;5.13;100.00
22255;BME280;11296;42.684;23.322;2023-01-10T07:40:48;94260.28;;;5.11;100.00
22255;BME280;11296;42.684;23.322;2023-01-10T07:43:14;94267.09;;;5.12;100.00
22255;BME280;11296;42.684;23.322;2023-01-10T07:45:40;94281.59;;;5.11;100.00
22255;BME280;11296;42.684;23.322;2023-01-10T07:48:06;94257.69;;;4.93;100.00
22255;BME280;11296;42.684;23.322;2023-01-10T07:50:35;94248.22;;;4.92;100.00
22255;BME280;11296;42.684;23.322;2023-01-10T07:53:03;94289.56;;;5.20;100.00
22255;BME280;11296;42.684;23.322;2023-01-10T07:55:29;94299.78;;;5.22;100.00
22255;BME280;11296;42.684;23.322;2023-01-10T07:57:55;94257.38;;;4.91;100.00
22255;BME280;11296;42.684;23.322;2023-01-10T08:00:21;94285.88;;;5.09;100.00
22255;BME280;11296;42.684;23.322;2023-01-10T08:02:50;94264.63;;;5.00;100.00
22255;BME280;11296;42.684;23.322;2023-01-10T08:06:33;94236.16;;;4.73;100.00
22255;BME280;11296;42.684;23.322;2023-01-10T08:09:01;94304.09;;;5.19;100.00
22255;BME280;11296;42.684;23.322;2023-01-10T08:11:29;94297.16;;;5.13;100.00
22255;BME280;11296;42.684;23.322;2023-01-10T08:13:55;94274.22;;;5.06;100.00
22255;BME280;11296;42.684;23.322;2023-01-10T08:16:20;94265.59;;;5.11;100.00
22255;BME280;11296;42.684;23.322;2023-01-10T08:18:46;94285.44;;;5.19;100.00
22255;BME280;11296;42.684;23.322;2023-01-10T08:21:12;94251.41;;;5.05;100.00
22255;BME280;11296;42.684;23.322;2023-01-10T08:23:38;94263.81;;;5.17;100.00
22255;BME280;11296;42.684;23.322;2023-01-10T08:26:04;94292.88;;;5.48;100.00
22255;BME280;11296;42.684;23.322;2023-01-10T08:28:30;94259.81;;;5.22;100.00
22255;BME280;11296;42.684;23.322;2023-01-10T08:30:56;94218.44;;;4.94;100.00
22255;BME280;11296;42.684;23.322;2023-01-10T08:33:23;94188.41;;;4.93;100.00
22255;BME280;11296;42.684;23.322;2023-01-10T08:35:49;94232.44;;;5.12;100.00
22255;BME280;11296;42.684;23.322;2023-01-10T08:38:15;94216.66;;;5.00;100.00
22255;BME280;11296;42.684;23.322;2023-01-10T08:40:41;94222.28;;;5.02;100.00
22255;BME280;11296;42.684;23.322;2023-01-10T08:43:09;94201.38;;;5.00;100.00
22255;BME280;11296;42.684;23.322;2023-01-10T08:45:36;94173.53;;;4.78;100.00
22255;BME280;11296;42.684;23.322;2023-01-10T08:48:03;94244.25;;;5.20;100.00
22255;BME280;11296;42.684;23.322;2023-01-10T08:50:29;94223.56;;;5.15;100.00
22255;BME280;11296;42.684;23.322;2023-01-10T08:52:59;94191.09;;;4.93;100.00
22255;BME280;11296;42.684;23.322;2023-01-10T08:55:26;94195.91;;;5.04;100.00
22255;BME280;11296;42.684;23.322;2023-01-10T08:57:52;94208.13;;;5.19;100.00
22255;BME280;11296;42.684;23.322;2023-01-10T09:00:21;94209.91;;;5.13;100.00
22255;BME280;11296;42.684;23.322;2023-01-10T09:02:47;94212.38;;;5.26;100.00
22255;BME280;11296;42.684;23.322;2023-01-10T09:05:12;94249.13;;;5.55;100.00
22255;BME280;11296;42.684;23.322;2023-01-10T09:07:38;94182.78;;;5.24;100.00
22255;BME280;11296;42.684;23.322;2023-01-10T09:10:06;94187.75;;;5.31;100.00
22255;BME280;11296;42.684;23.322;2023-01-10T09:12:32;94193.22;;;5.37;100.00
22255;BME280;11296;42.684;23.322;2023-01-10T09:15:16;94208.41;;;5.45;100.00
22255;BME280;11296;42.684;23.322;2023-01-10T09:17:42;94203.59;;;5.35;100.00
22255;BME280;11296;42.684;23.322;2023-01-10T09:20:08;94228.16;;;5.62;100.00
22255;BME280;11296;42.684;23.322;2023-01-10T09:22:38;94171.94;;;5.28;100.00
22255;BME280;11296;42.684;23.322;2023-01-10T09:25:05;94189.06;;;5.36;100.00
22255;BME280;11296;42.684;23.322;2023-01-10T09:27:31;94199.06;;;5.50;100.00
22255;BME280;11296;42.684;23.322;2023-01-10T09:29:57;94175.78;;;5.26;100.00
22255;BME280;11296;42.684;23.322;2023-01-10T09:32:23;94189.00;;;5.21;100.00
22255;BME280;11296;42.684;23.322;2023-01-10T09:34:52;94182.78;;;5.24;100.00
22255;BME280;11296;42.684;23.322;2023-01-10T09:37:18;94199.06;;;5.26;100.00
22255;BME280;11296;42.684;23.322;2023-01-10T09:39:43;94227.22;;;5.51;100.00
22255;BME280;11296;42.684;23.322;2023-01-10T09:48:08;94159.88;;;5.17;100.00
22255;BME280;11296;42.684;23.322;2023-01-10T09:51:07;94141.69;;;5.07;100.00
22255;BME280;11296;42.684;23.322;2023-01-10T09:53:39;94183.56;;;5.15;100.00
22255;BME280;11296;42.684;23.322;2023-01-10T09:56:06;94167.84;;;4.85;100.00
22255;BME280;11296;42.684;23.322;2023-01-10T09:58:34;94137.88;;;4.75;100.00
22255;BME280;11296;42.684;23.322;2023-01-10T10:01:15;94165.00;;;4.97;100.00
22255;BME280;11296;42.684;23.322;2023-01-10T10:03:57;94126.66;;;4.71;100.00
22255;BME280;11296;42.684;23.322;2023-01-10T10:06:26;94165.91;;;4.94;100.00
22255;BME280;11296;42.684;23.322;2023-01-10T10:08:52;94163.50;;;4.96;100.00
22255;BME280;11296;42.684;23.322;2023-01-10T10:16:57;94186.53;;;5.17;100.00
22255;BME280;11296;42.684;23.322;2023-01-10T10:20:00;94179.63;;;5.02;100.00
22255;BME280;11296;42.684;23.322;2023-01-10T10:33:59;94159.94;;;4.76;100.00
22255;BME280;11296;42.684;23.322;2023-01-10T10:39:02;94155.88;;;4.80;100.00
22255;BME280;11296;42.684;23.322;2023-01-10T10:41:36;94117.22;;;4.61;100.00
22255;BME280;11296;42.684;23.322;2023-01-10T10:46:43;94142.97;;;4.88;100.00
22255;BME280;11296;42.684;23.322;2023-01-10T10:49:36;94146.53;;;5.17;100.00
22255;BME280;11296;42.684;23.322;2023-01-10T10:52:16;94145.06;;;5.16;100.00
22255;BME280;11296;42.684;23.322;2023-01-10T10:54:44;94111.72;;;4.97;100.00
22255;BME280;11296;42.684;23.322;2023-01-10T10:57:10;94118.63;;;5.04;100.00
22255;BME280;11296;42.684;23.322;2023-01-10T10:59:37;94125.00;;;5.06;100.00
22255;BME280;11296;42.684;23.322;2023-01-10T11:02:07;94139.38;;;5.00;100.00
22255;BME280;11296;42.684;23.322;2023-01-10T11:04:34;94137.09;;;5.07;100.00
22255;BME280;11296;42.684;23.322;2023-01-10T11:07:00;94088.19;;;4.63;100.00
22255;BME280;11296;42.684;23.322;2023-01-10T11:09:39;94141.59;;;5.01;100.00
22255;BME280;11296;42.684;23.322;2023-01-10T11:12:12;94112.84;;;4.82;100.00
22255;BME280;11296;42.684;23.322;2023-01-10T11:14:47;94095.59;;;4.68;100.00
22255;BME280;11296;42.684;23.322;2023-01-10T11:17:28;94120.38;;;5.07;100.00
22255;BME280;11296;42.684;23.322;2023-01-10T11:20:13;94087.78;;;4.88;100.00
22255;BME280;11296;42.684;23.322;2023-01-10T11:23:00;94083.97;;;4.80;100.00
22255;BME280;11296;42.684;23.322;2023-01-10T11:25:29;94100.31;;;4.97;100.00
22255;BME280;11296;42.684;23.322;2023-01-10T11:27:59;94089.25;;;4.89;100.00
22255;BME280;11296;42.684;23.322;2023-01-10T11:30:27;94083.63;;;4.87;100.00
22255;BME280;11296;42.684;23.322;2023-01-10T11:33:05;94093.63;;;5.01;100.00
22255;BME280;11296;42.684;23.322;2023-01-10T11:35:54;94113.63;;;5.20;100.00
22255;BME280;11296;42.684;23.322;2023-01-10T11:38:23;94094.97;;;4.97;100.00
22255;BME280;11296;42.684;23.322;2023-01-10T11:46:19;94076.44;;;4.79;100.00
22255;BME280;11296;42.684;23.322;2023-01-10T11:48:58;94101.22;;;4.94;100.00
22255;BME280;11296;42.684;23.322;2023-01-10T11:51:31;94115.13;;;5.21;100.00
22255;BME280;11296;42.684;23.322;2023-01-10T11:54:00;94121.34;;;5.18;100.00
22255;BME280;11296;42.684;23.322;2023-01-10T11:56:32;94055.25;;;4.84;100.00
22255;BME280;11296;42.684;23.322;2023-01-10T11:59:06;94081.03;;;5.02;100.00
22255;BME280;11296;42.684;23.322;2023-01-10T12:02:33;94100.53;;;5.32;100.00
22255;BME280;11296;42.684;23.322;2023-01-10T12:05:00;94055.56;;;5.01;100.00
22255;BME280;11296;42.684;23.322;2023-01-10T12:07:27;94068.38;;;5.11;100.00
22255;BME280;11296;42.684;23.322;2023-01-10T12:10:01;94039.66;;;4.92;100.00
22255;BME280;11296;42.684;23.322;2023-01-10T12:12:32;94106.06;;;5.43;100.00
22255;BME280;11296;42.684;23.322;2023-01-10T12:15:21;94062.81;;;5.00;100.00
22255;BME280;11296;42.684;23.322;2023-01-10T12:17:46;94095.53;;;5.24;100.00
22255;BME280;11296;42.684;23.322;2023-01-10T12:20:14;94060.44;;;5.02;100.00
22255;BME280;11296;42.684;23.322;2023-01-10T12:22:53;94076.09;;;5.09;100.00
22255;BME280;11296;42.684;23.322;2023-01-10T12:25:21;94051.09;;;4.83;100.00
22255;BME280;11296;42.684;23.322;2023-01-10T12:27:52;94085.56;;;5.10;100.00
22255;BME280;11296;42.684;23.322;2023-01-10T12:30:29;94118.28;;;5.35;100.00
22255;BME280;11296;42.684;23.322;2023-01-10T12:32:59;94090.63;;;5.08;100.00
22255;BME280;11296;42.684;23.322;2023-01-10T12:35:51;94125.47;;;5.43;100.00
22255;BME280;11296;42.684;23.322;2023-01-10T12:38:30;94111.97;;;5.47;100.00
22255;BME280;11296;42.684;23.322;2023-01-10T12:41:24;94072.88;;;5.05;100.00
22255;BME280;11296;42.684;23.322;2023-01-10T12:44:17;94087.72;;;5.21;100.00
22255;BME280;11296;42.684;23.322;2023-01-10T12:46:47;94049.16;;;5.07;100.00
22255;BME280;11296;42.684;23.322;2023-01-10T12:49:25;94049.16;;;5.14;100.00
22255;BME280;11296;42.684;23.322;2023-01-10T12:51:57;94031.94;;;5.17;100.00
22255;BME280;11296;42.684;23.322;2023-01-10T12:54:26;94074.06;;;5.43;100.00
22255;BME280;11296;42.684;23.322;2023-01-10T12:56:53;94091.56;;;5.44;100.00
22255;BME280;11296;42.684;23.322;2023-01-10T12:59:24;69030.91;;;-141.65;100.00
22255;BME280;11296;42.684;23.322;2023-01-10T13:01:56;69030.91;;;-141.65;100.00
22255;BME280;11296;42.684;23.322;2023-01-10T13:04:27;69030.91;;;-141.65;100.00
22255;BME280;11296;42.684;23.322;2023-01-10T13:06:59;69030.91;;;-141.65;100.00
22255;BME280;11296;42.684;23.322;2023-01-10T13:09:29;69030.91;;;-141.65;100.00
22255;BME280;11296;42.684;23.322;2023-01-10T13:12:09;69030.91;;;-141.65;100.00
22255;BME280;11296;42.684;23.322;2023-01-10T13:14:57;69030.91;;;-141.65;100.00
22255;BME280;11296;42.684;23.322;2023-01-10T13:20:18;69030.91;;;-141.65;100.00
22255;BME280;11296;42.684;23.322;2023-01-10T13:22:52;69030.91;;;-141.65;100.00
22255;BME280;11296;42.684;23.322;2023-01-10T13:25:30;69030.91;;;-141.65;100.00
22255;BME280;11296;42.684;23.322;2023-01-10T13:28:15;69030.91;;;-141.65;100.00
22255;BME280;11296;42.684;23.322;2023-01-10T13:30:42;69030.91;;;-141.65;100.00
22255;BME280;11296;42.684;23.322;2023-01-10T13:33:20;69030.91;;;-141.65;100.00
22255;BME280;11296;42.684;23.322;2023-01-10T13:35:47;69030.91;;;-141.65;100.00
22255;BME280;11296;42.684;23.322;2023-01-10T13:38:19;69030.91;;;-141.65;100.00
22255;BME280;11296;42.684;23.322;2023-01-10T13:41:09;69030.91;;;-141.65;100.00
22255;BME280;11296;42.684;23.322;2023-01-10T13:51:26;69030.91;;;-141.65;100.00
22255;BME280;11296;42.684;23.322;2023-01-10T13:53:57;69030.91;;;-141.65;100.00
22255;BME280;11296;42.684;23.322;2023-01-10T13:56:43;69030.91;;;-141.65;100.00
22255;BME280;11296;42.684;23.322;2023-01-10T14:02:25;69030.91;;;-141.65;100.00
22255;BME280;11296;42.684;23.322;2023-01-10T14:04:58;69030.91;;;-141.65;100.00
22255;BME280;11296;42.684;23.322;2023-01-10T14:07:43;69030.91;;;-141.65;100.00
22255;BME280;11296;42.684;23.322;2023-01-10T14:10:20;69030.91;;;-141.65;100.00
22255;BME280;11296;42.684;23.322;2023-01-10T14:13:01;69030.91;;;-141.65;100.00
22255;BME280;11296;42.684;23.322;2023-01-10T14:15:45;69030.91;;;-141.65;100.00
22255;BME280;11296;42.684;23.322;2023-01-10T14:18:19;69030.91;;;-141.65;100.00
22255;BME280;11296;42.684;23.322;2023-01-10T14:21:06;69030.91;;;-141.65;100.00
22255;BME280;11296;42.684;23.322;2023-01-10T14:23:40;69030.91;;;-141.65;100.00
22255;BME280;11296;42.684;23.322;2023-01-10T14:28:54;69030.91;;;-141.65;100.00